createdAt,value
2023-02-28T00:03:50.616Z,0.53
2023-02-28T00:08:56.315Z,0.55
2023-02-28T00:14:01.768Z,0.54
2023-02-28T00:19:07.245Z,0.51
2023-02-28T00:24:12.660Z,0.51
2023-02-28T00:29:18.102Z,0.48
2023-02-28T00:34:23.506Z,0.41
2023-02-28T00:39:28.888Z,0.36
2023-02-28T00:44:34.714Z,0.35
2023-02-28T00:49:40.303Z,0.39
2023-02-28T00:54:47.368Z,0.46
2023-02-28T00:59:55.407Z,0.56
2023-02-28T01:05:01.088Z,0.58
2023-02-28T01:10:09.371Z,0.64
2023-02-28T01:15:14.903Z,0.72
2023-02-28T01:20:20.423Z,0.59
2023-02-28T01:25:25.987Z,0.34
2023-02-28T01:30:32.259Z,0.18
2023-02-28T01:35:38.484Z,0.14
2023-02-28T01:40:43.980Z,0.13
2023-02-28T01:45:49.680Z,0.08
2023-02-28T01:50:57.242Z,0.06
2023-02-28T01:56:04.341Z,0.00
2023-02-28T02:01:09.899Z,-0.08
2023-02-28T02:06:15.342Z,-0.12
2023-02-28T02:11:22.846Z,-0.15
2023-02-28T02:16:55.349Z,-0.21
2023-02-28T02:22:16.386Z,-0.25
2023-02-28T02:27:52.049Z,-0.25
2023-02-28T02:33:32.779Z,-0.23
2023-02-28T02:38:47.188Z,-0.20
2023-02-28T02:43:59.446Z,-0.21
2023-02-28T02:49:08.112Z,-0.18
2023-02-28T02:54:29.852Z,-0.22
2023-02-28T02:59:38.318Z,-0.20
2023-02-28T03:04:49.716Z,-0.21
2023-02-28T03:09:57.528Z,-0.24
2023-02-28T03:15:09.535Z,-0.36
2023-02-28T03:20:33.407Z,-0.35
2023-02-28T03:25:58.532Z,-0.31
2023-02-28T03:31:08.307Z,-0.23
2023-02-28T03:36:19.407Z,-0.23
2023-02-28T03:41:28.607Z,-0.20
2023-02-28T03:46:37.453Z,-0.18
2023-02-28T03:51:46.180Z,-0.19
2023-02-28T03:56:54.726Z,-0.36
2023-02-28T04:02:00.798Z,-0.28
2023-02-28T04:07:10.678Z,-0.38
2023-02-28T04:12:16.138Z,-0.49
2023-02-28T04:17:21.633Z,-0.43
2023-02-28T04:22:30.256Z,-0.46
2023-02-28T04:27:36.078Z,-0.50
2023-02-28T04:32:41.624Z,-0.64
2023-02-28T04:37:47.137Z,-0.56
2023-02-28T04:42:52.634Z,-0.61
2023-02-28T04:47:58.241Z,-0.70
2023-02-28T04:53:03.690Z,-1.03
2023-02-28T04:58:10.083Z,-0.84
2023-02-28T05:03:15.861Z,-0.74
2023-02-28T05:08:21.337Z,-0.73
2023-02-28T05:13:27.909Z,-0.83
2023-02-28T05:18:33.587Z,-0.84
2023-02-28T05:23:39.209Z,-0.75
2023-02-28T05:28:44.793Z,-0.76
2023-02-28T05:33:50.589Z,-0.72
2023-02-28T05:38:56.055Z,-0.72
2023-02-28T05:44:02.391Z,-0.76
2023-02-28T05:49:08.107Z,-0.74
2023-02-28T05:54:14.041Z,-0.69
2023-02-28T05:59:24.532Z,-0.90
2023-02-28T06:04:32.137Z,-1.00
2023-02-28T06:09:37.158Z,-1.06
2023-02-28T06:14:42.608Z,-0.98
2023-02-28T06:19:49.138Z,-0.82
2023-02-28T06:24:55.837Z,-0.67
2023-02-28T06:30:01.370Z,-0.65
2023-02-28T06:35:07.665Z,-0.62
2023-02-28T06:40:14.124Z,-0.49
2023-02-28T06:45:20.278Z,-0.39
2023-02-28T06:50:25.878Z,-0.29
2023-02-28T06:55:31.436Z,-0.10
2023-02-28T07:00:36.896Z,0.11
2023-02-28T07:05:42.589Z,0.11
2023-02-28T07:10:48.074Z,0.35
2023-02-28T07:16:17.558Z,0.58
2023-02-28T07:21:24.184Z,0.84
2023-02-28T07:26:29.768Z,1.02
2023-02-28T07:31:35.405Z,1.15
2023-02-28T07:36:41.126Z,1.51
2023-02-28T07:41:46.577Z,1.76
2023-02-28T07:46:52.078Z,1.86
2023-02-28T07:51:57.734Z,2.11
2023-02-28T07:57:04.066Z,2.44
2023-02-28T08:02:11.264Z,2.43
2023-02-28T08:07:17.665Z,2.60
2023-02-28T08:12:23.407Z,2.77
2023-02-28T08:17:28.937Z,3.01
2023-02-28T08:22:34.490Z,3.04
2023-02-28T08:27:39.969Z,3.21
2023-02-28T08:32:45.679Z,3.27
2023-02-28T08:37:51.729Z,3.48
2023-02-28T08:42:57.215Z,3.76
2023-02-28T08:48:02.956Z,3.89
2023-02-28T08:53:08.509Z,4.22
2023-02-28T08:58:13.986Z,4.42
2023-02-28T09:03:20.119Z,4.37
2023-02-28T09:08:28.936Z,4.58
2023-02-28T09:13:35.381Z,5.02
2023-02-28T09:18:41.711Z,5.02
2023-02-28T09:23:50.414Z,5.14
2023-02-28T09:28:56.868Z,5.14
2023-02-28T09:34:02.479Z,5.57
2023-02-28T09:39:08.403Z,5.82
2023-02-28T09:44:16.937Z,5.27
2023-02-28T09:49:25.574Z,5.48
2023-02-28T09:54:47.293Z,5.38
2023-02-28T10:00:11.466Z,5.53
2023-02-28T10:05:26.464Z,5.51
2023-02-28T10:10:44.184Z,5.64
2023-02-28T10:15:52.761Z,5.47
2023-02-28T10:20:59.279Z,5.58
2023-02-28T10:26:13.811Z,5.38
2023-02-28T10:31:22.258Z,5.74
2023-02-28T10:36:29.965Z,5.60
2023-02-28T10:41:37.585Z,5.90
2023-02-28T10:46:44.742Z,6.20
2023-02-28T10:51:53.137Z,6.10
2023-02-28T10:57:23.061Z,6.03
2023-02-28T11:07:53.008Z,5.97
2023-02-28T11:12:53.335Z,5.94
2023-02-28T11:17:59.157Z,6.16
2023-02-28T11:23:07.112Z,6.25
2023-02-28T11:28:30.769Z,6.37
2023-02-28T11:33:57.462Z,6.35
2023-02-28T11:39:05.786Z,6.17
2023-02-28T11:44:29.539Z,6.24
2023-02-28T11:49:42.172Z,6.44
2023-02-28T11:55:08.856Z,6.73
2023-02-28T12:00:36.289Z,7.17
2023-02-28T12:05:47.624Z,7.26
2023-02-28T12:11:14.165Z,7.21
2023-02-28T12:16:27.048Z,6.88
2023-02-28T12:21:50.914Z,6.47
2023-02-28T12:26:59.037Z,6.75
2023-02-28T12:32:10.984Z,7.00
2023-02-28T12:37:19.662Z,7.37
2023-02-28T12:42:31.568Z,7.10
2023-02-28T12:47:38.694Z,7.22
2023-02-28T12:53:05.232Z,8.05
2023-02-28T12:58:30.198Z,7.98
2023-02-28T13:03:56.929Z,7.85
2023-02-28T13:09:19.839Z,8.09
2023-02-28T13:14:34.194Z,8.33
2023-02-28T13:19:48.778Z,8.70
2023-02-28T13:24:57.024Z,8.77
2023-02-28T13:30:03.798Z,8.78
2023-02-28T13:35:12.372Z,8.78
2023-02-28T13:40:34.558Z,8.45
2023-02-28T13:45:40.891Z,9.15
2023-02-28T13:50:47.438Z,8.78
2023-02-28T13:56:01.524Z,8.88
2023-02-28T14:01:31.802Z,9.60
2023-02-28T14:06:40.811Z,9.72
2023-02-28T14:11:47.823Z,9.00
2023-02-28T14:16:53.706Z,8.74
2023-02-28T14:22:02.300Z,8.99
2023-02-28T14:27:19.789Z,8.64
2023-02-28T14:32:31.303Z,8.62
2023-02-28T14:37:40.321Z,8.66
2023-02-28T14:42:51.785Z,8.59
2023-02-28T14:48:00.379Z,8.53
2023-02-28T14:53:08.774Z,8.33
2023-02-28T14:58:28.791Z,8.33
2023-02-28T15:03:37.094Z,8.32
2023-02-28T15:08:42.752Z,8.38
2023-02-28T15:13:55.781Z,8.39
2023-02-28T15:19:09.858Z,7.96
2023-02-28T15:24:18.684Z,7.94
2023-02-28T15:29:27.016Z,7.70
2023-02-28T15:34:42.151Z,7.72
2023-02-28T15:39:45.694Z,7.73
2023-02-28T15:44:52.309Z,7.70
2023-02-28T15:50:06.645Z,7.50
2023-02-28T15:55:15.130Z,7.32
2023-02-28T16:00:27.028Z,7.12
2023-02-28T16:05:33.659Z,7.20
2023-02-28T16:10:39.375Z,7.27
2023-02-28T16:15:46.088Z,7.23
2023-02-28T16:20:51.560Z,7.07
2023-02-28T16:25:57.092Z,6.90
2023-02-28T16:31:04.319Z,6.69
2023-02-28T16:36:15.889Z,6.56
2023-02-28T16:41:24.332Z,6.43
2023-02-28T16:46:34.180Z,6.10
2023-02-28T16:51:39.711Z,5.58
2023-02-28T16:56:48.476Z,5.48
2023-02-28T17:01:54.909Z,5.18
2023-02-28T17:07:01.222Z,4.87
2023-02-28T17:12:07.500Z,4.47
2023-02-28T17:17:18.971Z,4.33
2023-02-28T17:22:24.492Z,4.05
2023-02-28T17:27:30.058Z,4.01
2023-02-28T17:32:35.592Z,3.86
2023-02-28T17:37:41.362Z,3.74
2023-02-28T17:42:47.178Z,3.76
2023-02-28T17:47:53.034Z,3.69
2023-02-28T17:52:59.590Z,3.49
2023-02-28T17:58:06.138Z,3.31
2023-02-28T18:03:13.301Z,3.14
2023-02-28T18:08:19.314Z,2.96
2023-02-28T18:13:24.762Z,2.92
2023-02-28T18:18:30.229Z,2.99
2023-02-28T18:23:36.196Z,2.68
2023-02-28T18:28:43.620Z,2.53
2023-02-28T18:33:52.504Z,2.36
2023-02-28T18:38:59.091Z,2.25
2023-02-28T18:44:13.795Z,2.13
2023-02-28T18:49:12.407Z,2.11
2023-02-28T18:54:18.583Z,2.02
2023-02-28T18:59:24.375Z,1.91
2023-02-28T19:04:29.885Z,1.84
2023-02-28T19:09:35.410Z,1.85
2023-02-28T19:14:40.890Z,1.83
2023-02-28T19:19:46.374Z,1.71
2023-02-28T19:24:52.325Z,1.55
2023-02-28T19:29:59.444Z,1.50
2023-02-28T19:35:05.423Z,1.56
2023-02-28T19:40:13.924Z,1.51
2023-02-28T19:45:19.453Z,1.50
2023-02-28T19:50:24.972Z,1.39
2023-02-28T19:55:31.882Z,1.37
2023-02-28T20:00:37.443Z,1.36
2023-02-28T20:05:43.147Z,1.31
2023-02-28T20:10:48.704Z,1.24
2023-02-28T20:15:55.014Z,1.21
2023-02-28T20:21:02.054Z,1.20
2023-02-28T20:26:08.170Z,1.18
2023-02-28T20:31:16.596Z,1.17
2023-02-28T20:36:23.588Z,1.09
2023-02-28T20:41:29.533Z,1.01
2023-02-28T20:46:35.801Z,1.03
2023-02-28T20:51:42.466Z,1.01
2023-02-28T20:56:48.670Z,0.97
2023-02-28T21:01:56.250Z,1.01
2023-02-28T21:07:01.705Z,0.93
2023-02-28T21:12:07.722Z,1.00
2023-02-28T21:17:13.551Z,0.93
2023-02-28T21:22:19.000Z,1.07
2023-02-28T21:27:25.591Z,1.00
2023-02-28T21:32:33.382Z,0.94
2023-02-28T21:37:39.814Z,0.91
2023-02-28T21:42:45.338Z,0.95
2023-02-28T21:47:50.976Z,0.94
2023-02-28T21:52:56.435Z,1.06
2023-02-28T21:58:01.844Z,1.06
2023-02-28T22:03:07.447Z,1.00
2023-02-28T22:08:13.146Z,0.99
2023-02-28T22:13:19.820Z,0.94
2023-02-28T22:18:25.365Z,0.91
2023-02-28T22:23:33.626Z,0.78
2023-02-28T22:28:39.634Z,0.80
2023-02-28T22:33:46.032Z,0.72
2023-02-28T22:38:52.900Z,0.75
2023-02-28T22:44:01.230Z,0.76
2023-02-28T22:49:07.476Z,0.75
2023-02-28T22:54:13.127Z,0.69
2023-02-28T22:59:18.522Z,0.66
2023-02-28T23:04:25.867Z,0.72
2023-02-28T23:09:31.388Z,0.82
2023-02-28T23:14:36.754Z,0.88
2023-02-28T23:19:42.280Z,0.85
2023-02-28T23:24:48.030Z,0.80
2023-02-28T23:29:54.029Z,0.81
2023-02-28T23:35:00.882Z,0.97
2023-02-28T23:40:08.885Z,0.87
2023-02-28T23:45:14.293Z,0.85
2023-02-28T23:50:19.809Z,0.79
2023-02-28T23:55:25.272Z,0.82
